Time;durP1;ratioP1;P1;durP2;ratioP2;P2;SDS_P1;SDS_P2;PMS_P1;PMS_P2;Temp;Humidity;BMP_temperature;BMP_pressure;BME280_temperature;BME280_humidity;BME280_pressure;Samples;Min_cycle;Max_cycle;Signal;HPM_P1;HPM_P2
2023/05/08 00:03:32;;;;;;;16.40;11.47;;;;;;;17.73;55.97;100076.88;10217162;28;20244;-68
2023/05/08 00:08:34;;;;;;;14.80;12.63;;;;;;;17.21;56.79;100062.81;10224022;28;20236;-68
2023/05/08 00:13:36;;;;;;;15.40;12.07;;;;;;;16.72;57.38;100011.19;10227580;28;20231;-68
2023/05/08 00:18:38;;;;;;;15.50;12.37;;;;;;;17.31;56.94;100060.44;10229761;28;20250;-68
2023/05/08 00:23:40;;;;;;;13.57;11.10;;;;;;;18.08;55.01;100063.59;10225744;28;20257;-68
2023/05/08 00:28:42;;;;;;;12.97;11.17;;;;;;;18.04;54.69;100019.03;10227477;28;20242;-68
2023/05/08 00:33:43;;;;;;;13.37;10.60;;;;;;;19.07;54.26;100091.41;10229722;28;20619;-68
2023/05/08 00:38:45;;;;;;;15.10;11.13;;;;;;;18.09;54.65;100011.06;10225349;28;20687;-68
2023/05/08 00:43:46;;;;;;;14.13;11.03;;;;;;;19.73;52.52;100086.69;10223449;28;20674;-68
2023/05/08 00:48:48;;;;;;;15.13;10.87;;;;;;;19.59;51.66;100007.44;10221322;28;20248;-68
2023/05/08 00:53:50;;;;;;;11.60;9.63;;;;;;;20.58;49.80;100008.22;10221329;28;21018;-68
2023/05/08 00:58:52;;;;;;;12.57;9.43;;;;;;;19.42;51.27;99961.19;10223904;28;20247;-68
2023/05/08 01:03:54;;;;;;;13.87;10.10;;;;;;;20.48;49.70;99987.94;10226054;28;20617;-68
2023/05/08 01:08:56;;;;;;;10.23;9.23;;;;;;;20.46;49.70;100003.69;10225277;28;20834;-68
2023/05/08 01:14:16;;;;;;;11.13;8.93;;;;;;;18.57;52.29;99929.94;10223413;28;20226;-68
2023/05/08 01:19:59;;;;;;;10.00;9.00;;;;;;;20.65;49.49;99998.84;10225373;28;20731;-68
2023/05/08 01:25:20;;;;;;;10.27;9.10;;;;;;;20.59;49.99;99999.00;10225171;28;20261;-68
2023/05/08 01:30:49;;;;;;;9.47;8.47;;;;;;;20.95;48.70;99999.59;10219623;28;20234;-68
2023/05/08 01:35:57;;;;;;;10.17;8.47;;;;;;;20.93;48.42;99999.00;10222440;28;20239;-68
2023/05/08 01:41:09;;;;;;;9.97;8.97;;;;;;;20.03;50.40;99952.63;10220679;28;20235;-68
2023/05/08 01:46:17;;;;;;;9.37;8.37;;;;;;;19.78;50.46;99928.53;10222374;28;20555;-68
2023/05/08 01:51:24;;;;;;;9.47;8.43;;;;;;;21.58;47.58;100011.13;10223245;28;20259;-68
2023/05/08 01:56:28;;;;;;;9.77;8.77;;;;;;;19.99;50.38;99937.84;10220930;28;20236;-68
2023/05/08 02:01:33;;;;;;;9.50;8.60;;;;;;;18.32;53.09;99947.25;10219063;28;20258;-67
2023/05/08 02:06:37;;;;;;;10.80;9.70;;;;;;;18.43;53.87;99984.34;10218911;28;20224;-68
2023/05/08 02:11:43;;;;;;;11.50;10.17;;;;;;;17.49;55.33;99963.06;10215764;28;20745;-68
2023/05/08 02:16:46;;;;;;;11.47;10.27;;;;;;;19.50;52.02;100004.22;10215201;28;20238;-68
2023/05/08 02:21:50;;;;;;;12.70;11.23;;;;;;;17.42;55.84;100002.88;10217414;28;21067;-68
2023/05/08 02:26:54;;;;;;;12.27;10.80;;;;;;;17.85;55.01;100002.00;10218066;28;20257;-68
2023/05/08 02:31:59;;;;;;;14.03;11.77;;;;;;;17.53;55.32;99983.22;10214445;28;20667;-68
2023/05/08 02:37:02;;;;;;;13.17;11.30;;;;;;;18.53;53.51;99999.22;10215304;28;20334;-68
2023/05/08 02:42:03;;;;;;;13.23;11.83;;;;;;;16.14;58.29;99953.63;10214751;28;20227;-69
2023/05/08 02:47:22;;;;;;;13.57;11.47;;;;;;;18.31;54.63;100036.84;10217365;28;20247;-68
2023/05/08 02:52:29;;;;;;;13.77;11.90;;;;;;;17.89;55.35;100053.81;10211594;28;20227;-68
2023/05/08 02:57:56;;;;;;;16.20;12.67;;;;;;;16.75;57.43;100016.16;10218317;28;20235;-68
2023/05/08 03:03:12;;;;;;;13.23;11.87;;;;;;;18.56;52.68;99953.50;10220148;28;20242;-68
2023/05/08 03:08:17;;;;;;;14.70;13.10;;;;;;;19.29;52.12;99996.72;10212178;28;20609;-68
2023/05/08 03:13:20;;;;;;;14.00;12.07;;;;;;;18.63;53.11;100007.59;10215219;28;20320;-69
2023/05/08 03:18:31;;;;;;;17.47;13.17;;;;;;;17.05;56.91;100021.75;10216971;28;20309;-68
2023/05/08 03:23:35;;;;;;;18.10;14.10;;;;;;;18.73;54.33;100048.50;10212599;28;20236;-68
2023/05/08 03:28:39;;;;;;;18.53;14.43;;;;;;;18.44;53.45;99979.78;10211124;28;20974;-68
2023/05/08 03:33:42;;;;;;;17.87;13.63;;;;;;;18.67;53.04;99989.81;10210835;28;20567;-68
2023/05/08 03:38:44;;;;;;;25.93;15.00;;;;;;;18.23;54.92;100048.78;10214371;28;20251;-68
2023/05/08 03:43:46;;;;;;;20.47;15.30;;;;;;;17.37;55.84;100018.97;10217450;28;20247;-68
2023/05/08 03:48:49;;;;;;;17.70;14.77;;;;;;;17.73;55.71;100064.19;10224031;28;20244;-68
2023/05/08 03:53:50;;;;;;;19.43;15.20;;;;;;;20.37;50.80;100069.53;10240945;28;20624;-68
2023/05/08 03:59:08;;;;;;;22.40;15.57;;;;;;;16.54;57.44;99998.47;10224880;28;20274;-68
2023/05/08 04:04:16;;;;;;;15.43;13.80;;;;;;;18.25;55.16;100073.75;10232974;28;20246;-68
2023/05/08 04:09:39;;;;;;;16.20;14.50;;;;;;;18.10;54.39;100015.44;10239401;28;20251;-68
2023/05/08 04:14:47;;;;;;;17.17;15.33;;;;;;;20.45;49.98;100036.53;10227644;28;20749;-68
2023/05/08 04:19:54;;;;;;;16.00;13.83;;;;;;;19.63;50.78;99986.88;10224348;28;20244;-68
2023/05/08 04:25:00;;;;;;;17.20;14.90;;;;;;;18.49;54.25;100076.59;10226009;28;20250;-68
2023/05/08 04:30:01;;;;;;;18.50;14.67;;;;;;;18.06;54.63;100045.91;10221210;28;20749;-68
2023/05/08 04:35:04;;;;;;;17.07;14.63;;;;;;;19.60;51.80;100040.81;10227293;28;20350;-68
2023/05/08 04:40:06;;;;;;;17.00;14.67;;;;;;;19.72;51.12;100022.59;10222197;28;20725;-68
2023/05/08 04:45:09;;;;;;;14.87;13.20;;;;;;;19.48;51.08;99987.34;10223865;28;20242;-68
2023/05/08 04:50:10;;;;;;;16.60;14.10;;;;;;;18.97;53.37;100043.16;10239331;28;20231;-69
2023/05/08 04:55:12;;;;;;;16.10;14.40;;;;;;;18.35;53.49;99989.28;10222303;28;20311;-70
2023/05/08 05:00:16;;;;;;;15.50;13.60;;;;;;;18.58;52.71;99981.19;10222226;28;20239;-67
2023/05/08 05:05:18;;;;;;;15.90;13.57;;;;;;;19.30;52.54;100058.88;10222955;28;20236;-67
2023/05/08 05:10:19;;;;;;;17.53;14.30;;;;;;;19.81;51.33;100026.59;10221193;28;20848;-68
2023/05/08 05:15:21;;;;;;;15.83;13.70;;;;;;;18.67;52.43;100000.66;10224657;28;20254;-68
2023/05/08 05:20:23;;;;;;;16.43;14.03;;;;;;;17.76;54.57;100029.59;10219940;28;20238;-68
2023/05/08 05:25:24;;;;;;;16.93;13.80;;;;;;;20.99;49.39;100088.63;10218981;28;20231;-68
2023/05/08 05:30:26;;;;;;;16.33;13.83;;;;;;;20.24;50.60;100063.31;10219887;28;20364;-67
2023/05/08 05:35:28;;;;;;;14.17;12.47;;;;;;;20.70;48.92;100006.25;10222024;28;20630;-67
2023/05/08 05:40:30;;;;;;;14.57;12.97;;;;;;;19.93;50.40;100029.28;10217494;28;20235;-68
2023/05/08 05:45:31;;;;;;;16.30;12.40;;;;;;;21.26;47.93;100055.28;10221984;28;20238;-69
2023/05/08 05:50:34;;;;;;;15.17;12.57;;;;;;;18.25;52.76;100015.03;10220093;28;20648;-70
2023/05/08 05:55:36;;;;;;;15.30;13.20;;;;;;;18.96;52.87;100079.47;10216585;28;20238;-67
2023/05/08 06:00:37;;;;;;;14.47;12.53;;;;;;;18.36;53.63;100064.91;10222964;28;20231;-67
2023/05/08 06:05:40;;;;;;;14.80;12.90;;;;;;;19.58;52.02;100087.19;10220944;28;20236;-67
2023/05/08 06:10:41;;;;;;;15.40;13.77;;;;;;;20.28;50.44;100040.03;10220545;28;20746;-67
2023/05/08 06:15:43;;;;;;;15.50;13.17;;;;;;;17.15;56.21;100029.38;10220485;28;20232;-67
2023/05/08 06:20:44;;;;;;;15.47;13.50;;;;;;;16.91;57.09;100068.88;10218566;28;20243;-67
2023/05/08 06:25:46;;;;;;;16.70;14.80;;;;;;;19.80;51.52;100029.56;10225275;28;20235;-67
2023/05/08 06:30:48;;;;;;;15.97;14.20;;;;;;;20.04;51.63;100076.47;10222316;28;20243;-68
2023/05/08 06:35:50;;;;;;;16.40;13.83;;;;;;;20.60;50.33;100066.72;10222042;28;20248;-67
2023/05/08 06:40:52;;;;;;;14.90;13.23;;;;;;;20.89;49.19;100039.50;10217870;28;20274;-69
2023/05/08 06:45:54;;;;;;;15.90;14.20;;;;;;;19.80;51.59;100068.38;10219663;28;20231;-68
2023/05/08 06:50:56;;;;;;;17.20;15.13;;;;;;;16.76;56.77;100031.34;10223668;28;20729;-67
2023/05/08 06:55:57;;;;;;;19.50;15.67;;;;;;;19.48;51.33;99992.75;10217148;28;20973;-70
2023/05/08 07:01:00;;;;;;;18.10;15.27;;;;;;;19.91;51.04;100005.09;10217940;28;20241;-69
2023/05/08 07:06:02;;;;;;;19.13;15.43;;;;;;;20.27;50.75;100046.53;10220830;28;20235;-67
2023/05/08 07:11:04;;;;;;;19.13;16.07;;;;;;;18.12;53.90;100022.47;10218304;28;20237;-68
2023/05/08 07:16:09;;;;;;;16.67;14.67;;;;;;;20.15;51.20;100048.44;10221091;28;20355;-70
2023/05/08 07:21:12;;;;;;;18.13;15.30;;;;;;;19.83;51.41;100021.75;10220710;28;20236;-69
2023/05/08 07:26:13;;;;;;;17.77;15.53;;;;;;;20.82;49.86;100068.75;10225564;28;20232;-67
2023/05/08 07:31:15;;;;;;;17.20;15.40;;;;;;;20.71;50.03;100050.56;10224110;28;20231;-69
2023/05/08 07:36:17;;;;;;;16.13;14.43;;;;;;;19.74;52.19;100085.66;10231622;28;20258;-68
2023/05/08 07:41:18;;;;;;;16.70;14.93;;;;;;;19.15;51.91;100026.78;10226146;28;20238;-67
2023/05/08 07:46:21;;;;;;;15.77;14.07;;;;;;;20.06;51.37;100052.63;10224412;28;20242;-68
2023/05/08 07:51:23;;;;;;;16.33;14.63;;;;;;;19.47;51.84;100045.41;10225346;28;20240;-68
2023/05/08 07:56:24;;;;;;;17.87;15.77;;;;;;;19.56;51.51;100049.41;10226359;28;20245;-67
2023/05/08 08:01:26;;;;;;;17.10;15.27;;;;;;;19.28;52.52;100065.56;10225781;28;20272;-68
2023/05/08 08:06:28;;;;;;;17.47;15.07;;;;;;;20.69;50.01;100076.09;10225552;28;20249;-68
2023/05/08 08:11:29;;;;;;;17.87;15.97;;;;;;;20.35;50.13;100052.66;10225178;28;20227;-67
2023/05/08 08:16:31;;;;;;;17.30;15.00;;;;;;;21.09;48.90;100074.34;10231644;28;21754;-68
2023/05/08 08:21:33;;;;;;;16.27;14.57;;;;;;;20.86;48.81;100037.25;10224305;28;20262;-68
2023/05/08 08:26:34;;;;;;;16.50;14.77;;;;;;;20.85;49.17;100070.94;10216913;28;20742;-68
2023/05/08 08:31:36;;;;;;;17.50;14.93;;;;;;;20.60;50.24;100076.78;10222921;28;20829;-68
2023/05/08 08:36:38;;;;;;;16.30;14.60;;;;;;;19.33;52.52;100085.53;10223756;28;20230;-68
2023/05/08 08:41:40;;;;;;;18.27;14.97;;;;;;;20.60;49.59;100016.97;10221869;28;20232;-68
2023/05/08 08:46:51;;;;;;;16.17;13.60;;;;;;;21.42;48.35;100073.53;10219643;28;20314;-68
2023/05/08 08:51:58;;;;;;;16.43;14.50;;;;;;;20.80;49.11;100011.03;10217398;28;20258;-68
2023/05/08 08:57:02;;;;;;;17.40;15.10;;;;;;;21.03;49.46;100056.28;10227736;28;20683;-68
2023/05/08 09:02:13;;;;;;;16.13;14.53;;;;;;;18.63;52.58;100057.22;10223185;28;20318;-68
2023/05/08 09:07:16;;;;;;;18.83;16.10;;;;;;;20.04;51.70;100090.91;10218002;28;20242;-67
2023/05/08 09:12:18;;;;;;;19.27;17.37;;;;;;;20.71;49.92;100037.78;10218929;28;20238;-67
2023/05/08 09:17:20;;;;;;;20.23;16.80;;;;;;;20.39;50.98;100032.06;10220021;28;20249;-68
2023/05/08 09:22:23;;;;;;;21.73;15.73;;;;;;;21.72;47.84;100055.94;10218848;28;20245;-68
2023/05/08 09:27:27;;;;;;;19.00;17.07;;;;;;;20.63;50.48;100058.06;10217190;28;20235;-68
2023/05/08 09:32:32;;;;;;;19.80;17.67;;;;;;;20.72;50.23;100063.13;10217125;28;20238;-68
2023/05/08 09:37:38;;;;;;;17.73;15.87;;;;;;;20.17;50.66;100016.47;10219302;28;20682;-68
2023/05/08 09:42:39;;;;;;;16.93;15.13;;;;;;;21.33;48.61;100008.84;10217116;28;20227;-68
2023/05/08 09:47:47;;;;;;;17.30;15.43;;;;;;;19.41;50.94;100031.97;10215754;28;20238;-68
2023/05/08 09:52:49;;;;;;;16.57;14.87;;;;;;;21.14;49.60;100058.09;10215384;28;20287;-68
2023/05/08 09:57:56;;;;;;;14.73;13.07;;;;;;;20.95;49.35;100027.63;10218112;28;20621;-68
2023/05/08 10:03:00;;;;;;;15.57;13.87;;;;;;;20.47;50.13;100056.16;10220766;28;20353;-68
2023/05/08 10:08:28;;;;;;;16.50;14.07;;;;;;;18.87;51.26;100015.78;10207982;28;20235;-67
2023/05/08 10:13:30;;;;;;;16.03;14.33;;;;;;;19.96;51.53;100023.38;10213773;28;20488;-68
2023/05/08 10:18:35;;;;;;;15.37;13.77;;;;;;;20.65;50.01;100045.06;10214237;28;20238;-68
2023/05/08 10:23:38;;;;;;;13.77;12.37;;;;;;;20.18;50.37;100026.28;10214527;28;20238;-68
2023/05/08 10:28:58;;;;;;;14.98;13.48;;;;;;;19.87;52.17;100031.09;10214358;28;20236;-68
2023/05/08 10:34:01;;;;;;;14.98;13.30;;;;;;;19.22;53.00;100082.81;10209326;28;20616;-68
2023/05/08 10:39:04;;;;;;;14.60;12.52;;;;;;;20.93;49.76;100016.16;10212074;28;20243;-67
2023/05/08 10:44:06;;;;;;;14.63;11.90;;;;;;;18.93;53.69;100033.81;10214225;28;20231;-67
2023/05/08 10:49:36;;;;;;;14.90;13.40;;;;;;;19.97;53.20;100078.50;10215226;28;20240;-68
2023/05/08 10:54:38;;;;;;;13.00;11.70;;;;;;;21.33;51.55;100057.84;10212264;28;20231;-68
2023/05/08 10:59:46;;;;;;;10.93;9.80;;;;;;;19.82;51.61;99998.38;10218033;28;20302;-68
2023/05/08 11:06:45;;;;;;;11.50;10.25;;;;;;;19.36;54.59;100076.91;10478808;27;2016838;-69
2023/05/08 11:12:17;;;;;;;11.60;10.40;;;;;;;20.17;53.17;100113.44;10471781;28;20223;-69
2023/05/08 11:17:23;;;;;;;11.45;10.00;;;;;;;20.02;52.32;100094.91;10450205;28;20267;-69
2023/05/08 11:22:27;;;;;;;10.70;9.60;;;;;;;19.48;53.39;100093.16;10460589;28;20318;-69
2023/05/08 11:27:32;;;;;;;11.05;9.95;;;;;;;20.13;52.93;100073.13;10457815;28;20239;-69
2023/05/08 11:33:01;;;;;;;8.77;7.88;;;;;;;19.97;52.35;100067.66;10460338;28;20242;-69
2023/05/08 11:38:18;;;;;;;9.50;7.68;;;;;;;20.87;51.97;100098.75;10456446;28;20228;-69
2023/05/08 11:43:31;;;;;;;8.77;7.40;;;;;;;19.90;51.81;100055.03;10455214;28;20261;-69
2023/05/08 11:48:34;;;;;;;8.45;7.45;;;;;;;18.96;52.78;100025.22;10459371;28;20242;-69
2023/05/08 11:53:37;;;;;;;8.75;7.85;;;;;;;19.43;53.13;100086.81;10501253;28;20226;-69
2023/05/08 11:58:38;;;;;;;8.40;7.47;;;;;;;18.44;53.35;100042.91;10501509;28;20223;-69
2023/05/08 12:03:40;;;;;;;8.80;7.90;;;;;;;19.86;52.56;100070.16;10495511;28;20243;-69
2023/05/08 12:08:41;;;;;;;9.05;7.75;;;;;;;20.29;51.96;100025.41;10462377;28;20806;-69
2023/05/08 12:13:49;;;;;;;10.38;7.78;;;;;;;18.65;54.80;100090.31;10452620;28;20208;-69
2023/05/08 12:18:52;;;;;;;11.10;9.23;;;;;;;18.93;54.30;100028.41;10427377;28;20236;-68
2023/05/08 12:23:54;;;;;;;11.07;9.98;;;;;;;19.86;53.38;100070.16;10440914;28;20248;-68
2023/05/08 12:28:56;;;;;;;12.38;11.00;;;;;;;19.35;54.40;100079.84;10430281;28;20255;-67
2023/05/08 12:33:58;;;;;;;14.67;13.13;;;;;;;19.66;52.99;100023.56;10433942;28;20238;-69
2023/05/08 12:39:14;;;;;;;15.60;14.15;;;;;;;19.60;52.97;100022.63;10428654;28;20240;-69
2023/05/08 12:44:23;;;;;;;15.90;14.27;;;;;;;20.22;52.26;100049.16;10431374;28;20322;-67
2023/05/08 12:49:27;;;;;;;16.00;14.48;;;;;;;19.93;52.99;100032.81;10429207;28;20244;-67
2023/05/08 12:54:45;;;;;;;16.30;14.75;;;;;;;19.58;54.77;100084.47;10429739;28;20267;-67
2023/05/08 12:59:47;;;;;;;15.00;13.60;;;;;;;19.87;53.60;100039.22;10423890;28;20231;-70
2023/05/08 13:04:55;;;;;;;14.05;12.65;;;;;;;20.01;53.77;100068.81;10429829;28;20584;-69
2023/05/08 13:10:04;;;;;;;13.68;12.30;;;;;;;20.17;53.37;100068.06;10427068;28;20338;-67
2023/05/08 13:15:06;;;;;;;15.05;13.65;;;;;;;19.64;53.45;100029.25;10429964;28;20239;-70
2023/05/08 13:20:08;;;;;;;14.45;13.05;;;;;;;20.96;51.56;100055.66;10422824;28;20303;-69
2023/05/08 13:25:11;;;;;;;14.77;13.38;;;;;;;19.53;54.02;100035.47;10422951;28;20230;-67
2023/05/08 13:30:14;;;;;;;12.32;11.13;;;;;;;19.95;53.99;100063.25;10424252;28;20288;-70
2023/05/08 13:35:17;;;;;;;12.77;11.52;;;;;;;20.70;53.13;100049.75;10427794;28;20239;-67
2023/05/08 13:40:19;;;;;;;11.85;10.75;;;;;;;19.69;52.97;100012.25;10427981;28;20243;-68
2023/05/08 13:45:20;;;;;;;10.88;9.77;;;;;;;20.37;53.27;100009.75;10423903;28;20928;-68
2023/05/08 13:50:22;;;;;;;12.25;9.43;;;;;;;19.58;53.78;100060.03;10423916;28;20228;-67
2023/05/08 13:55:24;;;;;;;10.07;9.07;;;;;;;20.68;50.79;100019.25;10426403;28;20229;-70
2023/05/08 14:00:25;;;;;;;8.13;7.32;;;;;;;20.48;51.56;100023.28;10426550;28;20246;-69
2023/05/08 14:05:28;;;;;;;8.15;7.35;;;;;;;19.60;52.52;100030.78;10430107;28;20292;-70
2023/05/08 14:10:30;;;;;;;8.48;7.68;;;;;;;20.26;51.85;100019.59;10433718;28;20247;-69
2023/05/08 14:15:33;;;;;;;6.57;5.93;;;;;;;20.23;51.52;100031.81;10444750;28;20276;-68
2023/05/08 14:20:38;;;;;;;6.22;5.63;;;;;;;19.48;52.95;100021.78;10446812;28;20231;-67
2023/05/08 14:25:39;;;;;;;6.10;5.47;;;;;;;20.68;50.78;100017.38;10424610;28;20236;-72
2023/05/08 14:30:41;;;;;;;8.85;6.80;;;;;;;19.53;52.43;99987.44;10425234;28;20706;-71
2023/05/08 14:35:44;;;;;;;6.60;6.00;;;;;;;20.34;51.39;100018.41;10419160;28;20735;-71
2023/05/08 14:40:49;;;;;;;6.68;5.97;;;;;;;20.39;50.69;99973.09;10445219;28;20235;-71
2023/05/08 14:45:51;;;;;;;7.30;6.60;;;;;;;20.67;51.25;100009.47;10452848;28;20240;-70
2023/05/08 14:50:53;;;;;;;6.50;5.90;;;;;;;21.10;50.68;99999.00;10422123;28;20296;-70
2023/05/08 14:55:54;;;;;;;6.95;6.25;;;;;;;20.93;50.77;99988.94;10429600;28;20232;-70
2023/05/08 15:05:26;;;;;;;7.80;6.45;;;;;;;18.53;56.77;100094.06;10493150;27;1962857;-70
2023/05/08 15:10:28;;;;;;;6.63;5.88;;;;;;;18.76;56.10;100068.91;10421352;28;20227;-70
2023/05/08 15:15:30;;;;;;;6.57;5.68;;;;;;;19.75;53.88;100071.84;10444282;22;20243;-42
2023/05/08 15:20:32;;;;;;;5.53;5.03;;;;;;;19.09;54.60;100068.41;10414218;28;20227;-45
2023/05/08 15:25:33;;;;;;;6.38;5.78;;;;;;;18.58;55.37;100054.38;10416106;28;20776;-43
2023/05/08 15:30:35;;;;;;;5.07;4.57;;;;;;;18.99;54.88;100090.66;10418501;22;20260;-39
2023/05/08 15:35:37;;;;;;;5.47;4.93;;;;;;;18.92;54.81;100076.41;10370478;28;20243;-39
2023/05/08 15:40:39;;;;;;;5.60;5.10;;;;;;;19.09;53.58;100062.97;10374413;28;20239;-38
2023/05/08 15:45:40;;;;;;;5.80;4.47;;;;;;;19.53;53.27;100101.44;10379206;28;20229;-39
2023/05/08 15:50:42;;;;;;;5.53;5.03;;;;;;;20.40;51.48;100086.19;10377267;28;20797;-39
2023/05/08 15:55:44;;;;;;;10.45;5.78;;;;;;;19.72;53.14;100064.16;10377234;28;20239;-38
2023/05/08 16:00:45;;;;;;;7.18;6.45;;;;;;;19.73;53.25;100040.56;10376554;28;20228;-38
2023/05/08 16:05:47;;;;;;;7.38;6.70;;;;;;;19.61;53.46;100061.47;10376143;28;20242;-39
2023/05/08 16:10:49;;;;;;;8.43;7.53;;;;;;;18.25;56.34;100062.94;10378528;28;20251;-38
2023/05/08 16:15:50;;;;;;;6.65;6.00;;;;;;;19.49;53.34;100081.25;10350120;28;20928;-39
2023/05/08 16:20:52;;;;;;;6.90;6.20;;;;;;;18.76;55.17;100068.91;10348880;28;20229;-39
2023/05/08 16:25:54;;;;;;;6.28;5.38;;;;;;;17.84;56.85;100078.03;10349871;28;20230;-37
2023/05/08 16:30:55;;;;;;;6.53;5.90;;;;;;;19.46;54.45;100061.94;10343662;28;20241;-36
2023/05/08 16:35:57;;;;;;;7.43;6.72;;;;;;;18.30;56.20;100029.78;10346236;28;20241;-37
2023/05/08 16:41:06;;;;;;;7.57;6.70;;;;;;;19.01;55.21;100090.44;10344429;28;20244;-36
2023/05/08 16:46:07;;;;;;;8.50;7.65;;;;;;;18.32;56.56;100058.31;10346197;28;20229;-36
2023/05/08 16:51:09;;;;;;;9.25;8.35;;;;;;;17.23;57.95;100014.75;10349749;28;20284;-37
2023/05/08 16:56:11;;;;;;;9.40;8.38;;;;;;;18.09;56.68;100026.50;10347489;28;20226;-37
2023/05/08 17:01:12;;;;;;;8.98;8.07;;;;;;;18.51;55.91;100067.19;10349870;28;20237;-37
2023/05/08 17:06:14;;;;;;;8.63;7.82;;;;;;;18.71;55.14;100066.06;10342047;28;20261;-36
2023/05/08 17:11:16;;;;;;;9.00;8.10;;;;;;;18.04;56.69;100066.97;10348823;28;20228;-37
2023/05/08 17:16:18;;;;;;;9.60;8.70;;;;;;;19.36;54.86;100114.06;10344844;28;20244;-37
2023/05/08 17:21:21;;;;;;;8.85;7.95;;;;;;;19.26;54.29;100079.38;10345511;28;20261;-37
2023/05/08 17:26:23;;;;;;;9.48;8.57;;;;;;;18.54;55.03;100038.78;10341385;28;20232;-37
2023/05/08 17:31:25;;;;;;;9.20;8.35;;;;;;;18.37;55.98;100055.72;10343767;28;20241;-36
2023/05/08 17:36:27;;;;;;;9.33;8.43;;;;;;;18.53;55.95;100078.63;10342876;28;20641;-37
2023/05/08 17:41:29;;;;;;;9.80;8.90;;;;;;;18.93;55.10;100090.75;10349400;28;20229;-37
2023/05/08 17:46:30;;;;;;;9.38;8.23;;;;;;;19.31;54.78;100122.09;10345952;28;20314;-37
2023/05/08 17:51:32;;;;;;;10.95;9.88;;;;;;;18.86;54.43;100052.91;10345067;28;20240;-37
2023/05/08 17:56:34;;;;;;;10.57;9.57;;;;;;;20.05;53.00;100122.41;10343092;28;20233;-37
2023/05/08 18:01:36;;;;;;;10.20;9.13;;;;;;;20.13;52.87;100100.31;10347660;28;20332;-37
2023/05/08 18:06:37;;;;;;;10.38;9.38;;;;;;;19.61;53.97;100078.56;10353112;28;20230;-37
2023/05/08 18:11:40;;;;;;;10.82;9.82;;;;;;;20.16;52.52;100111.75;10344076;28;20332;-37
2023/05/08 18:16:41;;;;;;;10.45;9.43;;;;;;;19.30;54.79;100101.44;10345971;28;20722;-37
2023/05/08 18:21:43;;;;;;;11.40;10.30;;;;;;;19.26;55.21;100111.09;10347925;28;20229;-37
2023/05/08 18:26:48;;;;;;;9.48;8.57;;;;;;;20.16;52.71;100104.44;10340575;28;20252;-37
2023/05/08 18:31:53;;;;;;;10.43;9.35;;;;;;;18.59;55.36;100079.56;10347141;28;20241;-37
2023/05/08 18:36:54;;;;;;;10.52;9.55;;;;;;;17.02;58.05;100013.28;10344055;28;20787;-37
2023/05/08 18:41:58;;;;;;;9.80;8.80;;;;;;;19.08;53.89;100041.50;10345732;28;20256;-37
2023/05/08 18:47:00;;;;;;;10.73;9.63;;;;;;;17.85;56.99;100052.59;10348618;28;20229;-37
2023/05/08 18:52:02;;;;;;;10.07;8.80;;;;;;;19.31;54.43;100086.81;10350190;28;20237;-36
2023/05/08 18:57:04;;;;;;;10.00;9.00;;;;;;;18.43;54.93;100025.00;10341865;28;20260;-36
2023/05/08 19:02:05;;;;;;;10.30;9.20;;;;;;;19.47;53.78;100083.41;10345884;28;20233;-36
2023/05/08 19:07:07;;;;;;;8.93;8.13;;;;;;;20.11;52.29;100112.50;10343648;28;20232;-37
2023/05/08 19:12:09;;;;;;;10.27;9.17;;;;;;;19.78;53.44;100097.66;10347719;28;20243;-37
2023/05/08 19:17:11;;;;;;;9.87;8.87;;;;;;;19.63;53.48;100079.16;10346906;28;20233;-37
2023/05/08 19:22:12;;;;;;;10.70;8.57;;;;;;;18.64;54.71;100017.38;10350318;28;20228;-37
2023/05/08 19:27:14;;;;;;;10.13;9.13;;;;;;;19.42;54.04;100077.84;10347227;28;20252;-37
2023/05/08 19:32:16;;;;;;;9.20;8.30;;;;;;;20.19;52.03;100095.00;10345536;28;20240;-37
2023/05/08 19:37:17;;;;;;;9.85;8.85;;;;;;;20.15;51.91;100080.22;10345900;28;20229;-37
2023/05/08 19:42:19;;;;;;;10.67;9.63;;;;;;;18.83;54.87;100048.78;10347134;28;20848;-37
2023/05/08 19:47:21;;;;;;;10.10;9.10;;;;;;;17.81;57.05;100063.06;10345132;28;20241;-37
2023/05/08 19:52:22;;;;;;;10.27;9.18;;;;;;;18.27;55.73;100075.19;10350260;28;20291;-37
2023/05/08 19:57:24;;;;;;;10.17;9.00;;;;;;;19.36;54.33;100122.19;10351596;28;20730;-37
2023/05/08 20:02:26;;;;;;;9.40;8.53;;;;;;;17.62;56.67;100037.84;10352098;28;20240;-37
2023/05/08 20:07:27;;;;;;;9.87;8.57;;;;;;;17.10;58.40;100051.66;10350127;28;20232;-36
2023/05/08 20:12:29;;;;;;;9.90;9.00;;;;;;;16.39;60.35;100077.91;10351185;28;20225;-37
2023/05/08 20:17:31;;;;;;;10.73;9.73;;;;;;;16.43;60.25;100094.50;10350722;28;20230;-37
2023/05/08 20:22:32;;;;;;;9.83;8.93;;;;;;;16.45;59.88;100116.75;10351205;28;20324;-37
2023/05/08 20:27:34;;;;;;;12.27;9.47;;;;;;;16.35;59.76;100094.78;10352623;28;20229;-37
2023/05/08 20:32:36;;;;;;;9.93;9.00;;;;;;;16.24;60.05;100097.06;10350107;28;20248;-36
2023/05/08 20:37:45;;;;;;;9.90;8.70;;;;;;;17.07;58.62;100143.19;10355155;28;20230;-37
2023/05/08 20:42:47;;;;;;;9.70;8.73;;;;;;;16.53;59.68;100121.88;10349594;28;20239;-37
2023/05/08 20:47:48;;;;;;;11.20;8.97;;;;;;;16.71;58.77;100112.25;10354075;28;20236;-37
2023/05/08 20:52:50;;;;;;;10.87;8.67;;;;;;;16.79;58.66;100091.19;10352111;28;20237;-36
2023/05/08 20:57:52;;;;;;;10.80;9.23;;;;;;;16.00;60.40;100071.63;10348133;28;20773;-36
2023/05/08 21:02:54;;;;;;;10.40;9.30;;;;;;;15.81;61.38;100097.66;10352109;28;20221;-36
2023/05/08 21:08:01;;;;;;;10.50;9.20;;;;;;;16.38;60.11;100135.69;10349762;28;20256;-36
2023/05/08 21:13:04;;;;;;;10.80;9.80;;;;;;;16.59;58.97;100088.59;10349690;28;20229;-37
2023/05/08 21:18:06;;;;;;;11.53;10.33;;;;;;;16.34;60.24;100117.41;10349037;28;20237;-37
2023/05/08 21:23:07;;;;;;;11.33;10.00;;;;;;;16.14;60.57;100117.47;10352645;28;20240;-37
2023/05/08 21:28:09;;;;;;;12.10;11.00;;;;;;;16.49;60.26;100161.19;10351303;28;20236;-36
2023/05/08 21:33:12;;;;;;;13.30;11.93;;;;;;;16.35;60.27;100146.91;10347553;28;20596;-38
2023/05/08 21:38:14;;;;;;;12.60;11.40;;;;;;;16.60;60.13;100163.22;10353306;28;20225;-39
2023/05/08 21:43:16;;;;;;;13.67;12.30;;;;;;;16.23;60.24;100124.31;10349291;28;20240;-38
2023/05/08 21:48:18;;;;;;;13.97;12.67;;;;;;;15.56;62.07;100104.75;10349246;28;20244;-37
2023/05/08 21:53:19;;;;;;;14.37;12.97;;;;;;;15.95;61.20;100138.91;10351283;28;20237;-38
2023/05/08 21:58:21;;;;;;;14.83;13.40;;;;;;;16.35;60.19;100144.22;10351182;28;20505;-38
2023/05/08 22:03:23;;;;;;;15.97;13.83;;;;;;;15.86;61.06;100111.31;10346726;28;20968;-38
2023/05/08 22:08:25;;;;;;;15.37;13.77;;;;;;;15.95;61.20;100124.59;10352200;28;20225;-37
2023/05/08 22:13:29;;;;;;;14.37;12.97;;;;;;;16.02;60.58;100126.22;10349357;28;20240;-39
2023/05/08 22:18:30;;;;;;;15.87;14.20;;;;;;;16.41;59.94;100156.00;10346106;28;20296;-39
2023/05/08 22:23:33;;;;;;;14.97;13.47;;;;;;;16.15;60.80;100148.84;10345762;28;20288;-39
2023/05/08 22:28:36;;;;;;;16.17;14.53;;;;;;;16.18;60.40;100146.53;10350921;28;20694;-38
2023/05/08 22:33:38;;;;;;;16.73;13.87;;;;;;;15.58;61.41;100108.06;10349596;28;20281;-39
2023/05/08 22:38:39;;;;;;;16.67;15.07;;;;;;;15.63;61.00;100105.56;10346209;28;20224;-39
2023/05/08 22:43:41;;;;;;;16.07;14.43;;;;;;;16.20;59.68;100140.91;10347338;28;20312;-37
2023/05/08 22:48:43;;;;;;;15.80;14.30;;;;;;;16.43;59.68;100167.44;10345583;28;20639;-40
2023/05/08 22:53:46;;;;;;;15.53;14.03;;;;;;;15.45;61.34;100090.84;10346336;28;20231;-40
2023/05/08 22:58:47;;;;;;;16.07;14.43;;;;;;;16.38;58.62;100097.03;10345005;28;20229;-38
2023/05/08 23:03:51;;;;;;;16.07;14.57;;;;;;;15.31;61.52;100098.09;10348332;28;20723;-38